createdAt,value
2022-10-25T00:00:28.986Z,81.57
2022-10-25T00:03:37.765Z,81.70
2022-10-25T00:06:43.771Z,82.12
2022-10-25T00:09:52.297Z,82.54
2022-10-25T00:12:58.611Z,82.32
2022-10-25T00:16:04.534Z,82.23
2022-10-25T00:19:12.011Z,82.61
2022-10-25T00:22:21.057Z,82.61
2022-10-25T00:25:29.377Z,83.50
2022-10-25T00:28:35.533Z,83.18
2022-10-25T00:31:42.423Z,83.61
2022-10-25T00:34:48.124Z,83.35
2022-10-25T00:37:54.556Z,83.57
2022-10-25T00:41:04.315Z,83.72
2022-10-25T00:44:53.559Z,83.66
2022-10-25T00:48:07.075Z,83.36
2022-10-25T00:51:13.376Z,83.08
2022-10-25T00:54:28.873Z,83.37
2022-10-25T00:57:46.152Z,84.17
2022-10-25T01:00:52.718Z,83.95
2022-10-25T01:04:06.081Z,84.01
2022-10-25T01:07:11.680Z,83.77
2022-10-25T01:10:17.437Z,84.09
2022-10-25T01:13:26.093Z,84.30
2022-10-25T01:16:48.774Z,84.36
2022-10-25T01:20:59.967Z,83.98
2022-10-25T01:24:52.410Z,84.13
2022-10-25T01:28:18.649Z,84.30
2022-10-25T01:31:43.852Z,83.57
2022-10-25T01:35:01.347Z,84.56
2022-10-25T01:38:45.004Z,84.09
2022-10-25T01:42:18.858Z,83.76
2022-10-25T01:45:37.208Z,84.17
2022-10-25T01:48:53.884Z,83.81
2022-10-25T01:51:59.543Z,83.62
2022-10-25T01:55:11.165Z,84.03
2022-10-25T01:58:41.544Z,82.97
2022-10-25T02:02:09.527Z,82.56
2022-10-25T02:05:30.670Z,82.88
2022-10-25T02:08:46.908Z,83.08
2022-10-25T02:11:56.471Z,82.34
2022-10-25T02:15:18.829Z,82.63
2022-10-25T02:18:33.772Z,82.73
2022-10-25T02:21:47.005Z,83.14
2022-10-25T02:24:58.240Z,82.25
2022-10-25T02:28:10.101Z,81.99
2022-10-25T02:31:22.823Z,81.96
2022-10-25T02:34:28.864Z,82.98
2022-10-25T02:37:37.100Z,83.68
2022-10-25T02:40:46.423Z,83.85
2022-10-25T02:43:52.566Z,84.43
2022-10-25T02:47:04.837Z,84.97
2022-10-25T02:50:11.567Z,84.83
2022-10-25T02:53:25.312Z,85.38
2022-10-25T02:56:31.455Z,85.41
2022-10-25T02:59:37.026Z,86.01
2022-10-25T03:02:42.599Z,85.59
2022-10-25T03:05:48.212Z,84.71
2022-10-25T03:08:56.424Z,85.17
2022-10-25T03:12:02.063Z,84.65
2022-10-25T03:15:09.745Z,84.78
2022-10-25T03:18:16.581Z,85.13
2022-10-25T03:21:22.082Z,85.19
2022-10-25T03:24:30.322Z,85.26
2022-10-25T03:27:35.886Z,84.74
2022-10-25T03:30:41.655Z,84.97
2022-10-25T03:33:48.059Z,84.39
2022-10-25T03:36:55.191Z,85.08
2022-10-25T03:40:03.561Z,85.48
2022-10-25T03:43:09.161Z,84.48
2022-10-25T03:46:16.292Z,84.75
2022-10-25T03:49:22.089Z,85.19
2022-10-25T03:52:28.214Z,84.80
2022-10-25T03:55:37.802Z,84.82
2022-10-25T03:58:43.464Z,84.38
2022-10-25T04:01:49.259Z,83.68
2022-10-25T04:04:55.278Z,83.57
2022-10-25T04:08:01.384Z,84.35
2022-10-25T04:11:09.763Z,83.74
2022-10-25T04:14:15.468Z,83.54
2022-10-25T04:17:21.255Z,83.91
2022-10-25T04:20:27.130Z,84.48
2022-10-25T04:23:32.978Z,84.41
2022-10-25T04:26:41.274Z,83.81
2022-10-25T04:29:46.852Z,83.58
2022-10-25T04:32:52.671Z,83.04
2022-10-25T04:35:59.459Z,83.13
2022-10-25T04:39:05.023Z,83.38
2022-10-25T04:42:13.330Z,83.35
2022-10-25T04:45:19.115Z,83.29
2022-10-25T04:48:25.583Z,83.81
2022-10-25T04:51:31.292Z,84.33
2022-10-25T04:54:36.854Z,83.61
2022-10-25T04:57:45.096Z,83.98
2022-10-25T05:00:50.860Z,83.84
2022-10-25T05:03:56.440Z,83.15
2022-10-25T05:07:02.255Z,83.23
2022-10-25T05:10:21.128Z,82.62
2022-10-25T05:13:29.256Z,82.39
2022-10-25T05:16:35.526Z,81.79
2022-10-25T05:19:41.141Z,82.21
2022-10-25T05:22:46.972Z,81.88
2022-10-25T05:26:03.391Z,81.95
2022-10-25T05:29:15.799Z,82.02
2022-10-25T05:32:21.419Z,81.69
2022-10-25T05:35:27.061Z,81.99
2022-10-25T05:38:36.948Z,82.14
2022-10-25T05:41:43.525Z,81.97
2022-10-25T05:44:51.803Z,81.60
2022-10-25T05:47:57.403Z,81.79
2022-10-25T05:54:42.644Z,81.58
2022-10-25T05:57:55.962Z,81.76
2022-10-25T06:01:05.500Z,80.95
2022-10-25T06:04:12.685Z,80.85
2022-10-25T06:07:18.420Z,80.44
2022-10-25T06:10:24.159Z,80.63
2022-10-25T06:13:29.746Z,80.03
2022-10-25T06:16:41.174Z,79.53
2022-10-25T06:19:46.859Z,79.22
2022-10-25T06:22:52.552Z,78.76
2022-10-25T06:26:04.081Z,78.31
2022-10-25T06:29:10.012Z,78.41
2022-10-25T06:32:18.348Z,78.72
2022-10-25T06:35:24.190Z,78.51
2022-10-25T06:38:29.936Z,78.36
2022-10-25T06:41:37.452Z,77.26
2022-10-25T06:44:43.462Z,76.54
2022-10-25T06:47:51.808Z,77.17
2022-10-25T06:51:05.717Z,77.19
2022-10-25T06:54:12.300Z,77.93
2022-10-25T06:57:18.080Z,78.19
2022-10-25T07:00:24.146Z,78.69
2022-10-25T07:03:35.366Z,78.41
2022-10-25T07:06:41.046Z,79.18
2022-10-25T07:09:47.303Z,79.38
2022-10-25T07:12:53.025Z,79.87
2022-10-25T07:16:06.144Z,80.21
2022-10-25T07:19:14.560Z,80.27
2022-10-25T07:22:20.070Z,80.66
2022-10-25T07:25:25.585Z,80.67
2022-10-25T07:28:31.280Z,79.95
2022-10-25T07:31:41.052Z,79.41
2022-10-25T07:39:26.120Z,77.97
2022-10-25T07:42:31.817Z,79.97
2022-10-25T07:45:37.612Z,80.62
2022-10-25T07:48:43.590Z,80.17
2022-10-25T07:51:49.114Z,80.49
2022-10-25T07:54:57.402Z,80.16
2022-10-25T07:58:04.626Z,81.43
2022-10-25T08:01:13.342Z,82.11
2022-10-25T08:04:19.634Z,81.85
2022-10-25T08:07:25.334Z,82.07
2022-10-25T08:10:33.997Z,81.98
2022-10-25T08:13:41.030Z,81.78
2022-10-25T08:16:46.814Z,82.65
2022-10-25T08:19:52.404Z,82.98
2022-10-25T08:23:01.120Z,83.06
2022-10-25T08:26:10.005Z,82.83
2022-10-25T08:29:15.640Z,82.70
2022-10-25T08:32:21.281Z,82.97
2022-10-25T08:35:26.912Z,83.14
2022-10-25T08:38:33.014Z,82.40
2022-10-25T08:41:54.173Z,82.26
2022-10-25T08:45:16.753Z,81.96
2022-10-25T08:48:31.142Z,81.92
2022-10-25T08:51:44.849Z,80.57
2022-10-25T08:54:53.030Z,80.65
2022-10-25T08:58:03.580Z,80.24
2022-10-25T09:01:30.172Z,78.55
2022-10-25T09:04:39.678Z,80.34
2022-10-25T09:08:28.916Z,80.80
2022-10-25T09:11:58.142Z,80.21
2022-10-25T09:15:21.614Z,79.51
2022-10-25T09:18:44.556Z,79.33
2022-10-25T09:22:00.260Z,77.96
2022-10-25T09:25:23.168Z,76.44
2022-10-25T09:28:52.391Z,76.77
2022-10-25T09:32:03.656Z,74.75
2022-10-25T09:35:19.592Z,74.13
2022-10-25T09:38:32.581Z,71.93
2022-10-25T09:41:46.322Z,71.22
2022-10-25T09:45:00.213Z,68.58
2022-10-25T09:48:25.788Z,64.95
2022-10-25T09:51:46.780Z,63.74
2022-10-25T09:54:57.890Z,61.08
2022-10-25T09:58:05.293Z,60.51
2022-10-25T10:01:20.140Z,59.08
2022-10-25T10:04:39.655Z,58.12
2022-10-25T10:07:48.018Z,59.98
2022-10-25T10:10:57.330Z,61.86
2022-10-25T10:14:13.691Z,65.13
2022-10-25T10:17:26.027Z,65.68
2022-10-25T10:20:35.106Z,67.45
2022-10-25T10:23:54.628Z,66.65
2022-10-25T10:27:04.809Z,66.81
2022-10-25T10:30:24.936Z,65.79
2022-10-25T10:33:36.160Z,63.29
2022-10-25T10:36:47.671Z,62.08
2022-10-25T10:39:56.716Z,62.63
2022-10-25T10:43:04.900Z,62.48
2022-10-25T10:46:20.105Z,61.57
2022-10-25T10:49:40.397Z,63.24
2022-10-25T10:52:54.021Z,64.20
2022-10-25T10:56:17.354Z,64.78
2022-10-25T10:59:47.648Z,63.55
2022-10-25T11:02:54.362Z,63.15
2022-10-25T11:06:07.764Z,63.04
2022-10-25T11:09:27.785Z,60.98
2022-10-25T11:12:36.529Z,57.52
2022-10-25T11:16:24.426Z,55.36
2022-10-25T11:20:21.585Z,56.48
2022-10-25T11:23:46.504Z,54.92
2022-10-25T11:27:13.917Z,55.09
2022-10-25T11:30:24.126Z,55.25
2022-10-25T11:33:55.941Z,55.74
2022-10-25T11:37:22.977Z,54.30
2022-10-25T11:40:35.711Z,55.45
2022-10-25T11:44:21.269Z,54.97
2022-10-25T11:47:46.176Z,56.14
2022-10-25T11:51:05.762Z,56.48
2022-10-25T11:54:32.973Z,57.14
2022-10-25T11:57:58.607Z,58.40
2022-10-25T12:01:28.622Z,59.49
2022-10-25T12:04:59.955Z,56.50
2022-10-25T12:08:29.297Z,55.74
2022-10-25T12:11:45.088Z,55.60
2022-10-25T12:14:59.715Z,56.23
2022-10-25T12:18:27.944Z,54.96
2022-10-25T12:21:49.378Z,56.77
2022-10-25T12:25:08.031Z,57.89
2022-10-25T12:28:28.088Z,59.31
2022-10-25T12:31:43.654Z,62.07
2022-10-25T12:34:57.200Z,63.92
2022-10-25T12:38:14.563Z,63.76
2022-10-25T12:41:30.391Z,65.75
2022-10-25T12:45:17.132Z,65.77
2022-10-25T12:49:03.667Z,66.20
2022-10-25T12:52:34.967Z,67.57
2022-10-25T12:56:04.554Z,68.82
2022-10-25T12:59:32.948Z,69.17
2022-10-25T13:03:31.547Z,68.93
2022-10-25T13:06:41.737Z,69.98
2022-10-25T13:09:51.411Z,70.51
2022-10-25T13:13:05.386Z,71.23
2022-10-25T13:16:14.117Z,70.97
2022-10-25T13:20:00.937Z,69.46
2022-10-25T13:22:56.769Z,68.78
2022-10-25T13:26:12.472Z,68.21
2022-10-25T13:29:51.376Z,68.93
2022-10-25T13:33:33.746Z,68.32
2022-10-25T13:36:53.992Z,68.11
2022-10-25T13:40:03.118Z,68.47
2022-10-25T13:43:24.377Z,68.61
2022-10-25T13:46:37.755Z,68.85
2022-10-25T13:49:51.103Z,68.27
2022-10-25T13:53:06.309Z,67.62
2022-10-25T13:56:19.353Z,69.18
2022-10-25T14:00:03.484Z,68.69
2022-10-25T14:03:37.665Z,68.29
2022-10-25T14:06:44.882Z,67.39
2022-10-25T14:09:57.143Z,67.31
2022-10-25T14:13:19.819Z,67.30
2022-10-25T14:16:35.144Z,66.80
2022-10-25T14:19:48.287Z,67.09
2022-10-25T14:23:00.775Z,66.73
2022-10-25T14:26:15.678Z,66.78
2022-10-25T14:29:25.163Z,66.60
2022-10-25T14:32:33.457Z,66.31
2022-10-25T14:35:49.843Z,66.75
2022-10-25T14:38:58.445Z,67.26
2022-10-25T14:42:06.710Z,67.58
2022-10-25T14:45:25.152Z,67.53
2022-10-25T14:48:34.612Z,67.93
2022-10-25T14:51:46.176Z,67.90
2022-10-25T14:55:02.859Z,67.86
2022-10-25T14:58:14.569Z,67.35
2022-10-25T15:01:25.314Z,68.05
2022-10-25T15:04:40.901Z,68.23
2022-10-25T15:07:51.553Z,67.60
2022-10-25T15:11:10.302Z,67.58
2022-10-25T15:14:24.916Z,67.39
2022-10-25T15:17:33.897Z,67.99
2022-10-25T15:20:42.340Z,68.12
2022-10-25T15:24:16.016Z,67.85
2022-10-25T15:27:36.794Z,68.21
2022-10-25T15:31:00.515Z,68.43
2022-10-25T15:34:08.959Z,68.29
2022-10-25T15:37:21.053Z,68.83
2022-10-25T15:40:26.866Z,69.61
2022-10-25T15:43:32.845Z,69.93
2022-10-25T15:46:38.828Z,69.71
2022-10-25T15:49:44.567Z,70.00
2022-10-25T15:52:52.844Z,70.00
2022-10-25T15:55:58.509Z,70.18
2022-10-25T15:59:04.520Z,70.47
2022-10-25T16:02:22.995Z,70.42
2022-10-25T16:05:32.388Z,70.56
2022-10-25T16:08:40.595Z,70.03
2022-10-25T16:11:57.079Z,70.07
2022-10-25T16:15:05.229Z,69.78
2022-10-25T16:18:19.155Z,69.63
2022-10-25T16:21:26.733Z,69.25
2022-10-25T16:24:35.005Z,69.16
2022-10-25T16:27:41.368Z,68.44
2022-10-25T16:30:47.109Z,68.62
2022-10-25T16:33:52.812Z,68.83
2022-10-25T16:36:58.577Z,68.82
2022-10-25T16:40:09.211Z,68.92
2022-10-25T16:43:17.129Z,69.12
2022-10-25T16:46:22.709Z,68.67
2022-10-25T16:49:28.629Z,68.99
2022-10-25T16:52:34.415Z,68.40
2022-10-25T16:55:45.865Z,68.41
2022-10-25T16:58:51.585Z,68.43
2022-10-25T17:02:02.135Z,68.44
2022-10-25T17:05:24.939Z,68.48
2022-10-25T17:08:30.514Z,68.62
2022-10-25T17:11:45.680Z,69.23
2022-10-25T17:14:53.389Z,68.93
2022-10-25T17:18:01.483Z,68.67
2022-10-25T17:21:19.276Z,68.63
2022-10-25T17:24:27.136Z,69.34
2022-10-25T17:27:54.237Z,69.37
2022-10-25T17:31:19.621Z,69.03
2022-10-25T17:34:25.858Z,69.06
2022-10-25T17:37:32.167Z,69.40
2022-10-25T17:40:49.664Z,70.02
2022-10-25T17:44:00.987Z,70.00
2022-10-25T17:47:06.883Z,69.74
2022-10-25T17:50:17.437Z,69.83
2022-10-25T17:53:26.103Z,70.27
2022-10-25T18:00:00.322Z,70.13
2022-10-25T18:03:17.888Z,69.50
2022-10-25T18:06:26.771Z,69.50
2022-10-25T18:09:32.359Z,69.96
2022-10-25T18:12:37.999Z,70.09
2022-10-25T18:15:49.670Z,70.35
2022-10-25T18:18:55.865Z,70.03
2022-10-25T18:22:04.906Z,69.91
2022-10-25T18:25:13.982Z,69.84
2022-10-25T18:28:19.745Z,69.99
2022-10-25T18:31:31.445Z,69.92
2022-10-25T18:34:37.063Z,70.18
2022-10-25T18:37:54.100Z,69.72
2022-10-25T18:41:00.821Z,69.96
2022-10-25T18:44:15.379Z,69.84
2022-10-25T18:47:23.948Z,69.46
2022-10-25T18:50:29.719Z,69.46
2022-10-25T18:53:36.406Z,69.29
2022-10-25T18:56:42.433Z,69.39
2022-10-25T18:59:48.203Z,69.18
2022-10-25T19:02:57.415Z,68.94
2022-10-25T19:06:03.181Z,68.87
2022-10-25T19:09:11.922Z,68.48
2022-10-25T19:12:20.584Z,69.06
2022-10-25T19:15:26.356Z,68.99
2022-10-25T19:18:36.571Z,70.27
2022-10-25T19:21:46.270Z,69.33
2022-10-25T19:24:52.072Z,69.40
2022-10-25T19:28:02.168Z,69.72
2022-10-25T19:31:12.095Z,70.70
2022-10-25T19:34:20.978Z,71.24
2022-10-25T19:37:26.963Z,71.18
2022-10-25T19:40:32.866Z,71.32
2022-10-25T19:43:39.245Z,71.52
2022-10-25T19:46:45.235Z,71.80
2022-10-25T19:49:53.573Z,71.94
2022-10-25T19:52:59.218Z,72.08
2022-10-25T19:56:07.839Z,72.13
2022-10-25T19:59:15.361Z,72.86
2022-10-25T20:02:21.227Z,72.41
2022-10-25T20:05:29.878Z,72.53
2022-10-25T20:08:37.903Z,73.00
2022-10-25T20:11:43.627Z,73.35
2022-10-25T20:14:49.192Z,72.99
2022-10-25T20:17:54.842Z,73.43
2022-10-25T20:21:07.547Z,73.44
2022-10-25T20:24:14.263Z,72.99
2022-10-25T20:27:19.997Z,73.23
2022-10-25T20:30:25.955Z,73.43
2022-10-25T20:33:31.937Z,73.17
2022-10-25T20:36:41.550Z,73.30
2022-10-25T20:39:47.741Z,73.65
2022-10-25T20:42:53.761Z,73.06
2022-10-25T20:45:59.766Z,73.46
2022-10-25T20:49:07.602Z,73.25
2022-10-25T20:52:17.407Z,73.33
2022-10-25T20:55:24.011Z,74.12
2022-10-25T20:58:30.205Z,73.48
2022-10-25T21:01:36.196Z,73.29
2022-10-25T21:04:53.047Z,73.38
2022-10-25T21:08:02.699Z,73.29
2022-10-25T21:11:13.350Z,73.52
2022-10-25T21:14:19.121Z,73.49
2022-10-25T21:17:25.501Z,73.13
2022-10-25T21:20:32.823Z,73.47
2022-10-25T21:23:41.244Z,73.66
2022-10-25T21:26:47.832Z,73.47
2022-10-25T21:29:53.639Z,73.07
2022-10-25T21:32:59.285Z,73.17
2022-10-25T21:36:12.507Z,72.75
2022-10-25T21:39:24.220Z,72.51
2022-10-25T21:42:40.257Z,72.04
2022-10-25T21:45:45.904Z,71.83
2022-10-25T21:48:53.370Z,71.63
2022-10-25T21:51:59.306Z,71.14
2022-10-25T21:55:08.770Z,71.57
2022-10-25T21:58:14.361Z,71.38
2022-10-25T22:01:29.612Z,71.58
2022-10-25T22:04:35.373Z,71.89
2022-10-25T22:07:40.956Z,71.81
2022-10-25T22:14:09.306Z,72.26
2022-10-25T22:17:15.099Z,71.97
2022-10-25T22:20:20.791Z,72.27
2022-10-25T22:23:28.811Z,72.61
2022-10-25T22:26:38.471Z,72.41
2022-10-25T22:29:44.091Z,73.11
2022-10-25T22:32:50.064Z,73.05
2022-10-25T22:36:17.450Z,72.75
2022-10-25T22:39:23.114Z,72.44
2022-10-25T22:42:31.310Z,72.53
2022-10-25T22:45:38.177Z,72.66
2022-10-25T22:48:46.820Z,73.03
2022-10-25T22:51:52.479Z,73.10
2022-10-25T22:55:00.534Z,72.65
2022-10-25T22:58:10.143Z,72.82
2022-10-25T23:01:24.473Z,72.93
2022-10-25T23:04:30.220Z,71.94
2022-10-25T23:07:35.865Z,72.09
2022-10-25T23:10:41.512Z,71.55
2022-10-25T23:13:50.455Z,71.27
2022-10-25T23:16:55.996Z,71.67
2022-10-25T23:20:05.059Z,71.54
2022-10-25T23:23:10.693Z,72.19
2022-10-25T23:26:22.902Z,72.81
2022-10-25T23:29:31.087Z,73.18
2022-10-25T23:32:36.686Z,73.22
2022-10-25T23:35:44.813Z,73.20
2022-10-25T23:38:51.939Z,73.09
2022-10-25T23:41:57.617Z,73.38
2022-10-25T23:45:10.569Z,72.85
2022-10-25T23:48:21.307Z,73.74
2022-10-25T23:51:26.924Z,73.91
2022-10-25T23:54:34.187Z,74.07
2022-10-25T23:57:40.069Z,74.23
